sensor_id;sensor_type;location;lat;lon;timestamp;P1;durP1;ratioP1;P2;durP2;ratioP2
11113;SDS011;5610;52.154;9.198;2022-08-25T00:00:48;4.60;;;3.60;;
11113;SDS011;5610;52.154;9.198;2022-08-25T00:03:33;8.10;;;3.90;;
11113;SDS011;5610;52.154;9.198;2022-08-25T00:06:19;8.10;;;4.20;;
11113;SDS011;5610;52.154;9.198;2022-08-25T00:09:04;6.13;;;3.70;;
11113;SDS011;5610;52.154;9.198;2022-08-25T00:11:51;5.50;;;4.33;;
11113;SDS011;5610;52.154;9.198;2022-08-25T00:14:38;5.57;;;4.20;;
11113;SDS011;5610;52.154;9.198;2022-08-25T00:17:25;6.50;;;3.90;;
11113;SDS011;5610;52.154;9.198;2022-08-25T00:20:11;5.80;;;3.40;;
11113;SDS011;5610;52.154;9.198;2022-08-25T00:22:56;4.20;;;3.80;;
11113;SDS011;5610;52.154;9.198;2022-08-25T00:25:42;7.37;;;3.60;;
11113;SDS011;5610;52.154;9.198;2022-08-25T00:28:28;5.60;;;4.10;;
11113;SDS011;5610;52.154;9.198;2022-08-25T00:31:17;6.30;;;4.37;;
11113;SDS011;5610;52.154;9.198;2022-08-25T00:34:03;4.60;;;4.20;;
11113;SDS011;5610;52.154;9.198;2022-08-25T00:36:50;4.87;;;3.80;;
11113;SDS011;5610;52.154;9.198;2022-08-25T00:39:36;9.87;;;4.20;;
11113;SDS011;5610;52.154;9.198;2022-08-25T00:42:22;8.27;;;3.90;;
11113;SDS011;5610;52.154;9.198;2022-08-25T00:45:08;6.00;;;4.50;;
11113;SDS011;5610;52.154;9.198;2022-08-25T00:47:55;5.27;;;4.23;;
11113;SDS011;5610;52.154;9.198;2022-08-25T00:50:40;6.47;;;4.37;;
11113;SDS011;5610;52.154;9.198;2022-08-25T00:53:25;5.97;;;4.77;;
11113;SDS011;5610;52.154;9.198;2022-08-25T00:56:11;4.13;;;3.73;;
11113;SDS011;5610;52.154;9.198;2022-08-25T00:58:58;5.23;;;4.63;;
11113;SDS011;5610;52.154;9.198;2022-08-25T01:01:43;8.13;;;4.70;;
11113;SDS011;5610;52.154;9.198;2022-08-25T01:04:30;6.73;;;4.30;;
11113;SDS011;5610;52.154;9.198;2022-08-25T01:07:16;5.80;;;4.90;;
11113;SDS011;5610;52.154;9.198;2022-08-25T01:10:03;5.83;;;4.70;;
11113;SDS011;5610;52.154;9.198;2022-08-25T01:12:51;5.73;;;4.87;;
11113;SDS011;5610;52.154;9.198;2022-08-25T01:15:42;5.60;;;5.00;;
11113;SDS011;5610;52.154;9.198;2022-08-25T01:18:28;8.73;;;4.90;;
11113;SDS011;5610;52.154;9.198;2022-08-25T01:21:28;6.80;;;5.20;;
11113;SDS011;5610;52.154;9.198;2022-08-25T01:24:17;6.50;;;4.90;;
11113;SDS011;5610;52.154;9.198;2022-08-25T01:27:08;5.57;;;4.87;;
11113;SDS011;5610;52.154;9.198;2022-08-25T01:29:55;6.97;;;5.20;;
11113;SDS011;5610;52.154;9.198;2022-08-25T01:32:41;8.63;;;5.00;;
11113;SDS011;5610;52.154;9.198;2022-08-25T01:35:26;5.73;;;5.20;;
11113;SDS011;5610;52.154;9.198;2022-08-25T01:38:13;5.17;;;4.60;;
11113;SDS011;5610;52.154;9.198;2022-08-25T01:41:00;8.20;;;4.83;;
11113;SDS011;5610;52.154;9.198;2022-08-25T01:43:45;5.47;;;4.87;;
11113;SDS011;5610;52.154;9.198;2022-08-25T01:46:32;6.07;;;5.47;;
11113;SDS011;5610;52.154;9.198;2022-08-25T01:49:18;6.10;;;4.97;;
11113;SDS011;5610;52.154;9.198;2022-08-25T01:52:05;9.73;;;5.00;;
11113;SDS011;5610;52.154;9.198;2022-08-25T01:55:01;7.20;;;5.10;;
11113;SDS011;5610;52.154;9.198;2022-08-25T01:57:47;7.37;;;5.30;;
11113;SDS011;5610;52.154;9.198;2022-08-25T02:00:35;7.53;;;5.30;;
11113;SDS011;5610;52.154;9.198;2022-08-25T02:03:20;5.57;;;4.77;;
11113;SDS011;5610;52.154;9.198;2022-08-25T02:06:07;5.67;;;4.77;;
11113;SDS011;5610;52.154;9.198;2022-08-25T02:08:55;7.50;;;5.80;;
11113;SDS011;5610;52.154;9.198;2022-08-25T02:11:45;5.43;;;4.93;;
11113;SDS011;5610;52.154;9.198;2022-08-25T02:14:30;5.80;;;5.20;;
11113;SDS011;5610;52.154;9.198;2022-08-25T02:17:18;5.80;;;4.80;;
11113;SDS011;5610;52.154;9.198;2022-08-25T02:20:04;5.53;;;5.10;;
11113;SDS011;5610;52.154;9.198;2022-08-25T02:22:51;5.87;;;5.37;;
11113;SDS011;5610;52.154;9.198;2022-08-25T02:25:37;7.50;;;5.50;;
11113;SDS011;5610;52.154;9.198;2022-08-25T02:28:25;7.00;;;5.47;;
11113;SDS011;5610;52.154;9.198;2022-08-25T02:31:11;5.77;;;5.17;;
11113;SDS011;5610;52.154;9.198;2022-08-25T02:33:56;5.60;;;5.10;;
11113;SDS011;5610;52.154;9.198;2022-08-25T02:36:42;6.10;;;5.40;;
11113;SDS011;5610;52.154;9.198;2022-08-25T02:39:27;6.13;;;5.33;;
11113;SDS011;5610;52.154;9.198;2022-08-25T02:42:12;9.03;;;5.27;;
11113;SDS011;5610;52.154;9.198;2022-08-25T02:44:59;7.73;;;5.43;;
11113;SDS011;5610;52.154;9.198;2022-08-25T02:47:45;7.33;;;5.13;;
11113;SDS011;5610;52.154;9.198;2022-08-25T02:50:30;5.00;;;4.50;;
11113;SDS011;5610;52.154;9.198;2022-08-25T02:53:15;5.97;;;5.10;;
11113;SDS011;5610;52.154;9.198;2022-08-25T02:56:01;8.13;;;5.10;;
11113;SDS011;5610;52.154;9.198;2022-08-25T02:58:47;5.90;;;4.77;;
11113;SDS011;5610;52.154;9.198;2022-08-25T03:01:33;6.20;;;5.17;;
11113;SDS011;5610;52.154;9.198;2022-08-25T03:04:19;7.97;;;5.50;;
11113;SDS011;5610;52.154;9.198;2022-08-25T03:07:04;7.00;;;5.37;;
11113;SDS011;5610;52.154;9.198;2022-08-25T03:09:49;8.90;;;5.20;;
11113;SDS011;5610;52.154;9.198;2022-08-25T03:12:35;6.27;;;5.67;;
11113;SDS011;5610;52.154;9.198;2022-08-25T03:15:20;5.50;;;5.00;;
11113;SDS011;5610;52.154;9.198;2022-08-25T03:18:09;5.73;;;5.17;;
11113;SDS011;5610;52.154;9.198;2022-08-25T03:20:55;6.73;;;4.70;;
11113;SDS011;5610;52.154;9.198;2022-08-25T03:23:40;5.60;;;5.10;;
11113;SDS011;5610;52.154;9.198;2022-08-25T03:26:26;6.63;;;5.13;;
11113;SDS011;5610;52.154;9.198;2022-08-25T03:29:29;7.50;;;5.23;;
11113;SDS011;5610;52.154;9.198;2022-08-25T03:32:16;5.43;;;4.97;;
11113;SDS011;5610;52.154;9.198;2022-08-25T03:35:04;7.47;;;4.80;;
11113;SDS011;5610;52.154;9.198;2022-08-25T03:37:53;12.63;;;5.87;;
11113;SDS011;5610;52.154;9.198;2022-08-25T03:40:39;7.50;;;4.60;;
11113;SDS011;5610;52.154;9.198;2022-08-25T03:43:24;5.97;;;5.43;;
11113;SDS011;5610;52.154;9.198;2022-08-25T03:46:15;5.80;;;4.90;;
11113;SDS011;5610;52.154;9.198;2022-08-25T03:49:02;7.50;;;6.00;;
11113;SDS011;5610;52.154;9.198;2022-08-25T03:51:50;5.43;;;4.93;;
11113;SDS011;5610;52.154;9.198;2022-08-25T03:54:37;7.80;;;5.80;;
11113;SDS011;5610;52.154;9.198;2022-08-25T03:57:22;7.00;;;5.60;;
11113;SDS011;5610;52.154;9.198;2022-08-25T04:00:08;6.17;;;5.57;;
11113;SDS011;5610;52.154;9.198;2022-08-25T04:02:56;6.17;;;5.17;;
11113;SDS011;5610;52.154;9.198;2022-08-25T04:05:41;8.30;;;5.00;;
11113;SDS011;5610;52.154;9.198;2022-08-25T04:08:28;6.27;;;5.23;;
11113;SDS011;5610;52.154;9.198;2022-08-25T04:11:14;6.70;;;5.63;;
11113;SDS011;5610;52.154;9.198;2022-08-25T04:14:01;7.00;;;5.37;;
11113;SDS011;5610;52.154;9.198;2022-08-25T04:16:48;10.80;;;5.47;;
11113;SDS011;5610;52.154;9.198;2022-08-25T04:19:34;10.03;;;5.80;;
11113;SDS011;5610;52.154;9.198;2022-08-25T04:22:20;7.17;;;5.90;;
11113;SDS011;5610;52.154;9.198;2022-08-25T04:25:07;7.87;;;5.93;;
11113;SDS011;5610;52.154;9.198;2022-08-25T04:27:53;6.73;;;5.67;;
11113;SDS011;5610;52.154;9.198;2022-08-25T04:30:40;7.03;;;5.60;;
11113;SDS011;5610;52.154;9.198;2022-08-25T04:33:26;13.27;;;6.10;;
11113;SDS011;5610;52.154;9.198;2022-08-25T04:36:11;22.73;;;6.70;;
11113;SDS011;5610;52.154;9.198;2022-08-25T04:38:57;12.30;;;6.53;;
11113;SDS011;5610;52.154;9.198;2022-08-25T04:41:43;18.03;;;6.10;;
11113;SDS011;5610;52.154;9.198;2022-08-25T04:44:29;30.07;;;7.40;;
11113;SDS011;5610;52.154;9.198;2022-08-25T04:47:15;15.60;;;6.30;;
11113;SDS011;5610;52.154;9.198;2022-08-25T04:50:00;14.10;;;5.87;;
11113;SDS011;5610;52.154;9.198;2022-08-25T04:52:45;9.83;;;6.20;;
11113;SDS011;5610;52.154;9.198;2022-08-25T04:55:31;15.40;;;6.50;;
11113;SDS011;5610;52.154;9.198;2022-08-25T04:58:18;14.33;;;5.90;;
11113;SDS011;5610;52.154;9.198;2022-08-25T05:01:04;18.37;;;6.30;;
11113;SDS011;5610;52.154;9.198;2022-08-25T05:03:51;8.63;;;5.97;;
11113;SDS011;5610;52.154;9.198;2022-08-25T05:06:38;10.10;;;5.53;;
11113;SDS011;5610;52.154;9.198;2022-08-25T05:09:24;8.73;;;6.27;;
11113;SDS011;5610;52.154;9.198;2022-08-25T05:12:10;6.67;;;5.50;;
11113;SDS011;5610;52.154;9.198;2022-08-25T05:14:57;6.00;;;5.40;;
11113;SDS011;5610;52.154;9.198;2022-08-25T05:18:03;8.17;;;6.00;;
11113;SDS011;5610;52.154;9.198;2022-08-25T05:20:48;10.33;;;5.13;;
11113;SDS011;5610;52.154;9.198;2022-08-25T05:23:34;6.80;;;5.33;;
11113;SDS011;5610;52.154;9.198;2022-08-25T05:26:20;6.30;;;5.17;;
11113;SDS011;5610;52.154;9.198;2022-08-25T05:29:06;4.87;;;4.37;;
11113;SDS011;5610;52.154;9.198;2022-08-25T05:31:54;6.00;;;5.40;;
11113;SDS011;5610;52.154;9.198;2022-08-25T05:34:40;9.03;;;5.50;;
11113;SDS011;5610;52.154;9.198;2022-08-25T05:37:25;5.80;;;5.30;;
11113;SDS011;5610;52.154;9.198;2022-08-25T05:40:11;9.17;;;5.57;;
11113;SDS011;5610;52.154;9.198;2022-08-25T05:42:57;8.30;;;6.07;;
11113;SDS011;5610;52.154;9.198;2022-08-25T05:45:42;8.93;;;4.93;;
11113;SDS011;5610;52.154;9.198;2022-08-25T05:48:29;5.80;;;5.30;;
11113;SDS011;5610;52.154;9.198;2022-08-25T05:51:14;10.00;;;5.50;;
11113;SDS011;5610;52.154;9.198;2022-08-25T05:54:00;7.43;;;5.33;;
11113;SDS011;5610;52.154;9.198;2022-08-25T05:56:46;6.33;;;5.20;;
11113;SDS011;5610;52.154;9.198;2022-08-25T05:59:31;9.83;;;6.03;;
11113;SDS011;5610;52.154;9.198;2022-08-25T06:02:16;7.77;;;5.40;;
11113;SDS011;5610;52.154;9.198;2022-08-25T06:05:21;10.00;;;5.50;;
11113;SDS011;5610;52.154;9.198;2022-08-25T06:08:06;10.60;;;5.53;;
11113;SDS011;5610;52.154;9.198;2022-08-25T06:10:52;6.43;;;5.50;;
11113;SDS011;5610;52.154;9.198;2022-08-25T06:13:37;7.50;;;6.23;;
11113;SDS011;5610;52.154;9.198;2022-08-25T06:16:23;7.67;;;5.53;;
11113;SDS011;5610;52.154;9.198;2022-08-25T06:19:08;7.40;;;6.43;;
11113;SDS011;5610;52.154;9.198;2022-08-25T06:21:56;12.70;;;7.03;;
11113;SDS011;5610;52.154;9.198;2022-08-25T06:24:41;9.83;;;6.70;;
11113;SDS011;5610;52.154;9.198;2022-08-25T06:27:26;10.00;;;6.30;;
11113;SDS011;5610;52.154;9.198;2022-08-25T06:30:13;8.30;;;6.27;;
11113;SDS011;5610;52.154;9.198;2022-08-25T06:32:59;7.10;;;6.40;;
11113;SDS011;5610;52.154;9.198;2022-08-25T06:35:45;7.27;;;6.17;;
11113;SDS011;5610;52.154;9.198;2022-08-25T06:38:32;10.30;;;5.60;;
11113;SDS011;5610;52.154;9.198;2022-08-25T06:41:17;6.63;;;6.03;;
11113;SDS011;5610;52.154;9.198;2022-08-25T06:44:02;6.87;;;5.60;;
11113;SDS011;5610;52.154;9.198;2022-08-25T06:46:48;6.87;;;5.53;;
11113;SDS011;5610;52.154;9.198;2022-08-25T06:49:33;7.60;;;6.40;;
11113;SDS011;5610;52.154;9.198;2022-08-25T06:52:19;7.00;;;6.20;;
11113;SDS011;5610;52.154;9.198;2022-08-25T06:55:06;8.57;;;6.50;;
11113;SDS011;5610;52.154;9.198;2022-08-25T06:57:51;7.17;;;5.70;;
11113;SDS011;5610;52.154;9.198;2022-08-25T07:00:37;6.50;;;5.80;;
11113;SDS011;5610;52.154;9.198;2022-08-25T07:03:22;6.83;;;6.20;;
11113;SDS011;5610;52.154;9.198;2022-08-25T07:06:08;7.80;;;5.83;;
11113;SDS011;5610;52.154;9.198;2022-08-25T07:08:54;10.47;;;7.17;;
11113;SDS011;5610;52.154;9.198;2022-08-25T07:11:41;9.33;;;6.40;;
11113;SDS011;5610;52.154;9.198;2022-08-25T07:14:28;10.90;;;7.00;;
11113;SDS011;5610;52.154;9.198;2022-08-25T07:17:14;8.93;;;6.60;;
11113;SDS011;5610;52.154;9.198;2022-08-25T07:19:59;11.97;;;7.20;;
11113;SDS011;5610;52.154;9.198;2022-08-25T07:22:45;10.03;;;6.50;;
11113;SDS011;5610;52.154;9.198;2022-08-25T07:25:31;8.63;;;7.03;;
11113;SDS011;5610;52.154;9.198;2022-08-25T07:28:18;7.90;;;5.73;;
11113;SDS011;5610;52.154;9.198;2022-08-25T07:31:05;8.00;;;6.97;;
11113;SDS011;5610;52.154;9.198;2022-08-25T07:33:51;8.10;;;7.30;;
11113;SDS011;5610;52.154;9.198;2022-08-25T07:36:54;8.17;;;7.37;;
11113;SDS011;5610;52.154;9.198;2022-08-25T07:39:40;8.00;;;7.20;;
11113;SDS011;5610;52.154;9.198;2022-08-25T07:42:25;8.27;;;7.40;;
11113;SDS011;5610;52.154;9.198;2022-08-25T07:45:12;8.57;;;7.17;;
11113;SDS011;5610;52.154;9.198;2022-08-25T07:47:59;14.17;;;7.67;;
11113;SDS011;5610;52.154;9.198;2022-08-25T07:50:45;9.73;;;6.90;;
11113;SDS011;5610;52.154;9.198;2022-08-25T07:53:32;9.00;;;7.60;;
11113;SDS011;5610;52.154;9.198;2022-08-25T07:56:17;10.23;;;7.90;;
11113;SDS011;5610;52.154;9.198;2022-08-25T07:59:02;10.03;;;9.00;;
11113;SDS011;5610;52.154;9.198;2022-08-25T08:01:49;12.47;;;8.97;;
11113;SDS011;5610;52.154;9.198;2022-08-25T08:04:35;9.70;;;8.70;;
11113;SDS011;5610;52.154;9.198;2022-08-25T08:07:21;13.40;;;9.13;;
11113;SDS011;5610;52.154;9.198;2022-08-25T08:10:10;14.00;;;9.20;;
11113;SDS011;5610;52.154;9.198;2022-08-25T08:12:57;10.00;;;9.10;;
11113;SDS011;5610;52.154;9.198;2022-08-25T08:15:42;15.70;;;10.33;;
11113;SDS011;5610;52.154;9.198;2022-08-25T08:18:29;10.77;;;9.07;;
11113;SDS011;5610;52.154;9.198;2022-08-25T08:21:16;12.33;;;9.33;;
11113;SDS011;5610;52.154;9.198;2022-08-25T08:24:04;11.27;;;9.33;;
11113;SDS011;5610;52.154;9.198;2022-08-25T08:26:50;12.70;;;10.23;;
11113;SDS011;5610;52.154;9.198;2022-08-25T08:29:35;9.03;;;8.23;;
11113;SDS011;5610;52.154;9.198;2022-08-25T08:32:22;13.70;;;9.70;;
11113;SDS011;5610;52.154;9.198;2022-08-25T08:35:09;10.00;;;9.20;;
11113;SDS011;5610;52.154;9.198;2022-08-25T08:37:54;11.03;;;9.30;;
11113;SDS011;5610;52.154;9.198;2022-08-25T08:40:42;11.37;;;9.10;;
11113;SDS011;5610;52.154;9.198;2022-08-25T08:43:55;11.20;;;10.07;;
11113;SDS011;5610;52.154;9.198;2022-08-25T08:46:48;10.00;;;8.97;;
11113;SDS011;5610;52.154;9.198;2022-08-25T08:49:48;11.93;;;9.40;;
11113;SDS011;5610;52.154;9.198;2022-08-25T08:52:46;14.20;;;9.20;;
11113;SDS011;5610;52.154;9.198;2022-08-25T08:55:35;10.83;;;9.70;;
11113;SDS011;5610;52.154;9.198;2022-08-25T08:58:23;13.23;;;9.27;;
11113;SDS011;5610;52.154;9.198;2022-08-25T09:01:12;11.87;;;9.30;;
11113;SDS011;5610;52.154;9.198;2022-08-25T09:04:04;13.20;;;8.73;;
11113;SDS011;5610;52.154;9.198;2022-08-25T09:06:54;10.83;;;9.50;;
11113;SDS011;5610;52.154;9.198;2022-08-25T09:09:44;17.43;;;9.87;;
11113;SDS011;5610;52.154;9.198;2022-08-25T09:12:31;10.53;;;9.17;;
11113;SDS011;5610;52.154;9.198;2022-08-25T09:15:26;10.67;;;9.40;;
11113;SDS011;5610;52.154;9.198;2022-08-25T09:18:33;11.27;;;8.70;;
11113;SDS011;5610;52.154;9.198;2022-08-25T09:21:29;14.10;;;9.77;;
11113;SDS011;5610;52.154;9.198;2022-08-25T09:24:25;11.80;;;9.30;;
11113;SDS011;5610;52.154;9.198;2022-08-25T09:27:22;11.57;;;10.10;;
11113;SDS011;5610;52.154;9.198;2022-08-25T09:30:13;12.20;;;8.70;;
11113;SDS011;5610;52.154;9.198;2022-08-25T09:33:00;9.70;;;8.80;;
11113;SDS011;5610;52.154;9.198;2022-08-25T09:35:47;10.17;;;9.27;;
11113;SDS011;5610;52.154;9.198;2022-08-25T09:38:34;15.30;;;8.70;;
11113;SDS011;5610;52.154;9.198;2022-08-25T09:41:33;11.20;;;8.90;;
11113;SDS011;5610;52.154;9.198;2022-08-25T09:44:25;10.70;;;9.10;;
11113;SDS011;5610;52.154;9.198;2022-08-25T09:47:21;12.23;;;9.10;;
11113;SDS011;5610;52.154;9.198;2022-08-25T09:50:07;10.23;;;7.50;;
11113;SDS011;5610;52.154;9.198;2022-08-25T09:53:09;12.20;;;8.40;;
11113;SDS011;5610;52.154;9.198;2022-08-25T09:55:58;8.83;;;7.87;;
11113;SDS011;5610;52.154;9.198;2022-08-25T09:58:47;11.43;;;8.03;;
11113;SDS011;5610;52.154;9.198;2022-08-25T10:01:34;8.30;;;7.50;;
11113;SDS011;5610;52.154;9.198;2022-08-25T10:04:33;11.83;;;8.10;;
11113;SDS011;5610;52.154;9.198;2022-08-25T10:07:22;9.00;;;8.10;;
11113;SDS011;5610;52.154;9.198;2022-08-25T10:10:15;8.63;;;7.83;;
11113;SDS011;5610;52.154;9.198;2022-08-25T10:13:12;11.20;;;8.50;;
11113;SDS011;5610;52.154;9.198;2022-08-25T10:16:02;9.33;;;7.80;;
11113;SDS011;5610;52.154;9.198;2022-08-25T10:19:05;10.50;;;7.97;;
11113;SDS011;5610;52.154;9.198;2022-08-25T10:22:01;8.10;;;7.40;;
11113;SDS011;5610;52.154;9.198;2022-08-25T10:24:49;8.97;;;8.03;;
11113;SDS011;5610;52.154;9.198;2022-08-25T10:27:36;9.57;;;7.90;;
11113;SDS011;5610;52.154;9.198;2022-08-25T10:30:30;9.60;;;8.60;;
11113;SDS011;5610;52.154;9.198;2022-08-25T10:33:27;9.57;;;7.80;;
11113;SDS011;5610;52.154;9.198;2022-08-25T10:36:25;11.10;;;7.80;;
11113;SDS011;5610;52.154;9.198;2022-08-25T10:39:24;10.00;;;8.13;;
11113;SDS011;5610;52.154;9.198;2022-08-25T10:42:29;8.63;;;7.70;;
11113;SDS011;5610;52.154;9.198;2022-08-25T10:45:20;7.73;;;7.03;;
11113;SDS011;5610;52.154;9.198;2022-08-25T10:51:51;8.13;;;7.00;;
11113;SDS011;5610;52.154;9.198;2022-08-25T10:54:45;7.07;;;6.47;;
11113;SDS011;5610;52.154;9.198;2022-08-25T10:57:38;13.80;;;7.20;;
11113;SDS011;5610;52.154;9.198;2022-08-25T11:00:33;8.67;;;7.00;;
11113;SDS011;5610;52.154;9.198;2022-08-25T11:03:31;9.97;;;6.70;;
11113;SDS011;5610;52.154;9.198;2022-08-25T11:06:30;7.27;;;6.47;;
11113;SDS011;5610;52.154;9.198;2022-08-25T11:09:23;7.37;;;6.63;;
11113;SDS011;5610;52.154;9.198;2022-08-25T11:12:13;9.60;;;7.20;;
11113;SDS011;5610;52.154;9.198;2022-08-25T11:15:06;7.87;;;7.17;;
11113;SDS011;5610;52.154;9.198;2022-08-25T11:17:55;7.77;;;7.07;;
11113;SDS011;5610;52.154;9.198;2022-08-25T11:20:44;10.70;;;7.57;;
11113;SDS011;5610;52.154;9.198;2022-08-25T11:23:35;8.33;;;7.20;;
11113;SDS011;5610;52.154;9.198;2022-08-25T11:26:26;8.63;;;7.37;;
11113;SDS011;5610;52.154;9.198;2022-08-25T11:29:17;9.17;;;6.70;;
11113;SDS011;5610;52.154;9.198;2022-08-25T11:32:05;8.27;;;7.40;;
11113;SDS011;5610;52.154;9.198;2022-08-25T11:34:51;10.07;;;6.80;;
11113;SDS011;5610;52.154;9.198;2022-08-25T11:37:38;7.10;;;6.60;;
11113;SDS011;5610;52.154;9.198;2022-08-25T11:40:50;7.23;;;6.60;;
11113;SDS011;5610;52.154;9.198;2022-08-25T11:43:49;10.43;;;7.40;;
11113;SDS011;5610;52.154;9.198;2022-08-25T11:46:51;9.03;;;7.30;;
11113;SDS011;5610;52.154;9.198;2022-08-25T11:49:55;7.87;;;7.10;;
11113;SDS011;5610;52.154;9.198;2022-08-25T11:52:44;8.80;;;7.90;;
11113;SDS011;5610;52.154;9.198;2022-08-25T11:55:46;7.30;;;6.60;;
11113;SDS011;5610;52.154;9.198;2022-08-25T11:58:41;8.20;;;7.00;;
11113;SDS011;5610;52.154;9.198;2022-08-25T12:04:55;8.00;;;6.57;;
11113;SDS011;5610;52.154;9.198;2022-08-25T12:07:57;7.47;;;6.60;;
11113;SDS011;5610;52.154;9.198;2022-08-25T12:11:04;8.15;;;7.30;;
11113;SDS011;5610;52.154;9.198;2022-08-25T12:13:52;8.07;;;6.32;;
11113;SDS011;5610;52.154;9.198;2022-08-25T12:17:04;7.18;;;6.57;;
11113;SDS011;5610;52.154;9.198;2022-08-25T12:19:55;9.55;;;7.00;;
11113;SDS011;5610;52.154;9.198;2022-08-25T12:22:43;7.53;;;6.70;;
11113;SDS011;5610;52.154;9.198;2022-08-25T12:25:42;8.03;;;7.03;;
11113;SDS011;5610;52.154;9.198;2022-08-25T12:28:39;8.07;;;7.37;;
11113;SDS011;5610;52.154;9.198;2022-08-25T12:31:43;7.83;;;7.03;;
11113;SDS011;5610;52.154;9.198;2022-08-25T12:34:49;8.30;;;6.70;;
11113;SDS011;5610;52.154;9.198;2022-08-25T12:37:57;11.20;;;7.60;;
11113;SDS011;5610;52.154;9.198;2022-08-25T12:40:52;8.03;;;7.10;;
11113;SDS011;5610;52.154;9.198;2022-08-25T12:43:42;8.87;;;7.70;;
11113;SDS011;5610;52.154;9.198;2022-08-25T12:46:33;10.13;;;8.50;;
11113;SDS011;5610;52.154;9.198;2022-08-25T12:49:30;9.27;;;8.10;;
11113;SDS011;5610;52.154;9.198;2022-08-25T12:52:18;12.50;;;7.27;;
11113;SDS011;5610;52.154;9.198;2022-08-25T12:55:07;7.17;;;6.47;;
11113;SDS011;5610;52.154;9.198;2022-08-25T12:57:55;7.53;;;6.77;;
11113;SDS011;5610;52.154;9.198;2022-08-25T13:00:47;7.93;;;6.83;;
11113;SDS011;5610;52.154;9.198;2022-08-25T13:07:08;10.33;;;7.10;;
11113;SDS011;5610;52.154;9.198;2022-08-25T13:10:14;7.90;;;6.53;;
11113;SDS011;5610;52.154;9.198;2022-08-25T13:13:05;7.10;;;6.37;;
11113;SDS011;5610;52.154;9.198;2022-08-25T13:15:58;8.90;;;6.77;;
11113;SDS011;5610;52.154;9.198;2022-08-25T13:18:44;7.63;;;6.10;;
11113;SDS011;5610;52.154;9.198;2022-08-25T13:21:32;10.47;;;6.67;;
11113;SDS011;5610;52.154;9.198;2022-08-25T13:24:23;8.67;;;6.73;;
11113;SDS011;5610;52.154;9.198;2022-08-25T13:27:18;9.30;;;7.30;;
11113;SDS011;5610;52.154;9.198;2022-08-25T13:30:15;11.80;;;6.70;;
11113;SDS011;5610;52.154;9.198;2022-08-25T13:33:17;8.13;;;6.83;;
11113;SDS011;5610;52.154;9.198;2022-08-25T13:36:04;8.67;;;6.40;;
11113;SDS011;5610;52.154;9.198;2022-08-25T13:39:12;14.40;;;6.90;;
11113;SDS011;5610;52.154;9.198;2022-08-25T13:41:59;8.10;;;6.83;;
11113;SDS011;5610;52.154;9.198;2022-08-25T13:44:48;10.07;;;7.20;;
11113;SDS011;5610;52.154;9.198;2022-08-25T13:47:34;10.10;;;6.60;;
11113;SDS011;5610;52.154;9.198;2022-08-25T13:50:31;8.90;;;6.30;;
11113;SDS011;5610;52.154;9.198;2022-08-25T13:53:20;8.10;;;6.10;;
11113;SDS011;5610;52.154;9.198;2022-08-25T13:56:07;9.57;;;6.40;;
11113;SDS011;5610;52.154;9.198;2022-08-25T13:58:53;8.30;;;5.80;;
11113;SDS011;5610;52.154;9.198;2022-08-25T14:01:44;9.75;;;6.03;;
11113;SDS011;5610;52.154;9.198;2022-08-25T14:04:32;9.00;;;6.47;;
11113;SDS011;5610;52.154;9.198;2022-08-25T14:07:31;10.48;;;5.88;;
11113;SDS011;5610;52.154;9.198;2022-08-25T14:10:30;8.25;;;6.05;;
11113;SDS011;5610;52.154;9.198;2022-08-25T14:13:28;9.93;;;5.90;;
11113;SDS011;5610;52.154;9.198;2022-08-25T14:16:17;11.57;;;6.77;;
11113;SDS011;5610;52.154;9.198;2022-08-25T14:19:08;10.40;;;6.43;;
11113;SDS011;5610;52.154;9.198;2022-08-25T14:21:58;8.67;;;7.10;;
11113;SDS011;5610;52.154;9.198;2022-08-25T14:24:44;7.90;;;7.10;;
11113;SDS011;5610;52.154;9.198;2022-08-25T14:27:29;8.20;;;6.80;;
11113;SDS011;5610;52.154;9.198;2022-08-25T14:30:15;8.50;;;6.93;;
11113;SDS011;5610;52.154;9.198;2022-08-25T14:33:00;7.83;;;6.83;;
11113;SDS011;5610;52.154;9.198;2022-08-25T14:35:49;11.00;;;7.33;;
11113;SDS011;5610;52.154;9.198;2022-08-25T14:38:37;9.37;;;6.93;;
11113;SDS011;5610;52.154;9.198;2022-08-25T14:41:22;9.83;;;6.83;;
11113;SDS011;5610;52.154;9.198;2022-08-25T14:44:08;8.00;;;7.07;;
11113;SDS011;5610;52.154;9.198;2022-08-25T14:46:54;8.20;;;7.50;;
11113;SDS011;5610;52.154;9.198;2022-08-25T14:49:42;10.57;;;7.10;;
11113;SDS011;5610;52.154;9.198;2022-08-25T14:52:29;8.10;;;7.13;;
11113;SDS011;5610;52.154;9.198;2022-08-25T14:55:15;16.97;;;7.50;;
11113;SDS011;5610;52.154;9.198;2022-08-25T14:58:00;12.80;;;7.87;;
11113;SDS011;5610;52.154;9.198;2022-08-25T15:00:46;9.53;;;7.60;;
11113;SDS011;5610;52.154;9.198;2022-08-25T15:03:33;11.73;;;6.73;;
11113;SDS011;5610;52.154;9.198;2022-08-25T15:06:20;14.83;;;7.27;;
11113;SDS011;5610;52.154;9.198;2022-08-25T15:09:08;8.30;;;7.50;;
11113;SDS011;5610;52.154;9.198;2022-08-25T15:11:56;8.73;;;7.40;;
11113;SDS011;5610;52.154;9.198;2022-08-25T15:14:42;7.53;;;6.80;;
11113;SDS011;5610;52.154;9.198;2022-08-25T15:17:27;8.07;;;7.07;;
11113;SDS011;5610;52.154;9.198;2022-08-25T15:20:13;9.07;;;7.43;;
11113;SDS011;5610;52.154;9.198;2022-08-25T15:22:58;7.50;;;6.80;;
11113;SDS011;5610;52.154;9.198;2022-08-25T15:25:45;8.70;;;6.80;;
11113;SDS011;5610;52.154;9.198;2022-08-25T15:28:31;9.47;;;7.47;;
11113;SDS011;5610;52.154;9.198;2022-08-25T15:31:17;10.23;;;7.47;;
11113;SDS011;5610;52.154;9.198;2022-08-25T15:34:06;12.13;;;7.27;;
11113;SDS011;5610;52.154;9.198;2022-08-25T15:36:52;11.70;;;7.70;;
11113;SDS011;5610;52.154;9.198;2022-08-25T15:39:38;9.70;;;6.70;;
11113;SDS011;5610;52.154;9.198;2022-08-25T15:42:26;8.27;;;7.57;;
11113;SDS011;5610;52.154;9.198;2022-08-25T15:45:11;10.87;;;7.30;;
11113;SDS011;5610;52.154;9.198;2022-08-25T15:47:57;8.47;;;6.87;;
11113;SDS011;5610;52.154;9.198;2022-08-25T15:50:42;12.00;;;7.80;;
11113;SDS011;5610;52.154;9.198;2022-08-25T15:53:28;9.83;;;7.90;;
11113;SDS011;5610;52.154;9.198;2022-08-25T15:56:13;11.47;;;7.57;;
11113;SDS011;5610;52.154;9.198;2022-08-25T15:59:03;8.43;;;7.47;;
11113;SDS011;5610;52.154;9.198;2022-08-25T16:01:48;9.13;;;7.27;;
11113;SDS011;5610;52.154;9.198;2022-08-25T16:04:36;11.40;;;8.03;;
11113;SDS011;5610;52.154;9.198;2022-08-25T16:07:22;9.77;;;8.33;;
11113;SDS011;5610;52.154;9.198;2022-08-25T16:10:07;8.73;;;7.80;;
11113;SDS011;5610;52.154;9.198;2022-08-25T16:12:53;7.73;;;7.00;;
11113;SDS011;5610;52.154;9.198;2022-08-25T16:15:40;13.50;;;8.20;;
11113;SDS011;5610;52.154;9.198;2022-08-25T16:18:31;8.50;;;7.70;;
11113;SDS011;5610;52.154;9.198;2022-08-25T16:21:18;11.53;;;7.90;;
11113;SDS011;5610;52.154;9.198;2022-08-25T16:24:06;9.50;;;7.73;;
11113;SDS011;5610;52.154;9.198;2022-08-25T16:26:51;11.37;;;8.17;;
11113;SDS011;5610;52.154;9.198;2022-08-25T16:29:37;10.57;;;8.50;;
11113;SDS011;5610;52.154;9.198;2022-08-25T16:32:25;9.83;;;8.30;;
11113;SDS011;5610;52.154;9.198;2022-08-25T16:35:11;8.60;;;7.70;;
11113;SDS011;5610;52.154;9.198;2022-08-25T16:37:57;11.07;;;7.50;;
11113;SDS011;5610;52.154;9.198;2022-08-25T16:40:42;9.40;;;6.90;;
11113;SDS011;5610;52.154;9.198;2022-08-25T16:43:27;8.03;;;7.20;;
11113;SDS011;5610;52.154;9.198;2022-08-25T16:46:13;11.10;;;8.70;;
11113;SDS011;5610;52.154;9.198;2022-08-25T16:49:02;11.80;;;8.57;;
11113;SDS011;5610;52.154;9.198;2022-08-25T16:51:49;10.63;;;7.63;;
11113;SDS011;5610;52.154;9.198;2022-08-25T16:54:34;11.23;;;7.30;;
11113;SDS011;5610;52.154;9.198;2022-08-25T16:57:38;11.37;;;7.43;;
11113;SDS011;5610;52.154;9.198;2022-08-25T17:00:26;8.83;;;7.23;;
11113;SDS011;5610;52.154;9.198;2022-08-25T17:03:13;11.93;;;7.77;;
11113;SDS011;5610;52.154;9.198;2022-08-25T17:06:00;9.87;;;7.73;;
11113;SDS011;5610;52.154;9.198;2022-08-25T17:08:45;9.80;;;7.77;;
11113;SDS011;5610;52.154;9.198;2022-08-25T17:11:34;8.43;;;7.63;;
11113;SDS011;5610;52.154;9.198;2022-08-25T17:14:25;9.67;;;7.63;;
11113;SDS011;5610;52.154;9.198;2022-08-25T17:17:12;8.83;;;7.93;;
11113;SDS011;5610;52.154;9.198;2022-08-25T17:19:56;10.43;;;8.40;;